CheckWX is a tool to help pilots better visualize weather data.  It is not intended as a substitute for an official pre-flight weather briefing.

21:05:01 UTC

KDVN METAR
Davenport Municipal Airport
Davenport, Iowa, USA
Current

13 mins ago

KDVN 232052Z AUTO 29012KT 10SM CLR 23/11 A3009 RMK AO2 SLP182 T02330106 55004
Observed
May-23 @ 20:52 UTC
Wind
  • 290° at 12 KTS
Visibility
10 SM
Flight Rules
VFR
Cloud Levels
  • Clear skies
Temperature
23°C / 73°F
Dewpoint
11°C / 52°F
Humidity
47%
Altimeter
30.09" Hg
Pressure
1018.92 hPa
Previous

1 hour ago

KDVN 231952Z AUTO 30015G24KT 10SM CLR 23/11 A3008 RMK AO2 SLP181 T02280111
Observed
May-23 @ 19:52 UTC
Wind
  • 300° at 15 KTS
  • Gusting to 24 KTS
Visibility
10 SM
Flight Rules
VFR
Cloud Levels
  • Clear skies
Temperature
23°C / 73°F
Dewpoint
11°C / 52°F
Humidity
47%
Altimeter
30.08" Hg
Pressure
1018.62 hPa
Previous

2 hours ago

KDVN 231852Z AUTO 29011KT 10SM CLR 22/12 A3009 RMK AO2 SLP182 T02170117
Observed
May-23 @ 18:52 UTC
Wind
  • 290° at 11 KTS
Visibility
10 SM
Flight Rules
VFR
Cloud Levels
  • Clear skies
Temperature
22°C / 72°F
Dewpoint
12°C / 54°F
Humidity
53%
Altimeter
30.09" Hg
Pressure
1018.92 hPa